If you wish to contribute or participate in the discussions about articles you are invited to join SKYbrary as a registered user

 Actions

Angoulême-Brie-Champniers Airport

From SKYbrary Wiki

LFBU
Airport
ICAO: LFBU – IATA: ANG
Summary
Name Angoulême-Brie-Champniers Airport
Region Europe
Territory France FR.gif
Location , Poitou-Charentes
Serving Angouleme
Elevation 132.893 m
436 ft
436 ft132.893 m
Type medium airport
Coordinates 45° 43' 45.29" N, 0° 13' 17.24" E
Runways
Designator Length Width Surface ROPS
10/28 1810 m5,938.32 ft
45 m147.638 ft
ASP /


METAR
Observation LFBU 131800Z AUTO 02010KT 8000 NSC 03/02 Q1009 TEMPO OVC007
Station BRIE CHAMPNIERS
Date/Time 13 December 2018 18:00:00
Wind direction 20°
Wind speed 10 kts
Lowest cloud amount overcast
Temperature 3°C
Dew point 2°C
Humidity 93%
QNH 1009 hPa
Weather condition n/a